Time;durP1;ratioP1;P1;durP2;ratioP2;P2;SDS_P1;SDS_P2;PMS_P1;PMS_P2;Temp;Humidity;BMP_temperature;BMP_pressure;BME280_temperature;BME280_humidity;BME280_pressure;Samples;Min_cycle;Max_cycle;Signal;HPM_P1;HPM_P2
2021/11/28 00:01:57;;;;;;;17.35;10.82;;;2.60;99.90;;;;;;4974138;28;20049;-63
2021/11/28 00:04:23;;;;;;;18.17;11.25;;;2.50;99.90;;;;;;4984630;28;20027;-53
2021/11/28 00:09:44;;;;;;;31.30;18.33;;;2.50;99.90;;;;;;4976375;28;20113;-62
2021/11/28 00:14:45;;;;;;;20.33;12.57;;;2.40;99.90;;;;;;4977107;28;20038;-62
2021/11/28 00:17:12;;;;;;;17.67;11.80;;;2.40;99.90;;;;;;4970810;28;20035;-58
2021/11/28 00:19:40;;;;;;;18.40;11.90;;;2.40;99.90;;;;;;4971405;28;20034;-53
2021/11/28 00:22:07;;;;;;;17.38;11.13;;;2.50;99.90;;;;;;4990012;28;20087;-51
2021/11/28 00:24:33;;;;;;;42.55;25.00;;;2.40;99.90;;;;;;4983349;28;20019;-57
2021/11/28 00:26:59;;;;;;;19.52;12.52;;;2.40;99.90;;;;;;4982364;28;20054;-61
2021/11/28 00:29:25;;;;;;;21.58;12.90;;;2.30;99.90;;;;;;4981822;28;20034;-52
2021/11/28 00:31:51;;;;;;;22.45;13.30;;;2.30;99.90;;;;;;4980573;28;20105;-51
2021/11/28 00:34:17;;;;;;;22.83;13.07;;;2.30;99.90;;;;;;4979566;28;20123;-49
2021/11/28 00:36:43;;;;;;;23.40;13.48;;;2.40;99.90;;;;;;4981940;28;20493;-50
2021/11/28 00:39:08;;;;;;;19.40;12.18;;;2.40;99.90;;;;;;4981399;28;20046;-49
2021/11/28 00:41:34;;;;;;;17.88;11.77;;;2.40;99.90;;;;;;5000494;28;20081;-49
2021/11/28 00:44:00;;;;;;;18.42;12.00;;;2.40;99.90;;;;;;4996469;28;20070;-53
2021/11/28 00:46:25;;;;;;;18.95;11.57;;;2.40;99.90;;;;;;4982399;28;20034;-50
2021/11/28 00:48:52;;;;;;;56.63;31.35;;;2.40;99.90;;;;;;4984195;28;20327;-56
2021/11/28 00:53:49;;;;;;;18.95;12.48;;;2.30;99.90;;;;;;4979663;28;20552;-50
2021/11/28 00:56:15;;;;;;;21.63;13.25;;;2.30;99.90;;;;;;4981747;28;20045;-54
2021/11/28 00:58:41;;;;;;;17.38;10.95;;;2.30;99.90;;;;;;4980793;28;20117;-54
2021/11/28 01:01:06;;;;;;;18.58;11.43;;;2.40;99.90;;;;;;4986415;28;20030;-54
2021/11/28 01:03:32;;;;;;;19.92;11.25;;;2.40;99.90;;;;;;4990324;28;20022;-56
2021/11/28 01:05:58;;;;;;;19.80;11.90;;;2.30;99.90;;;;;;4997467;28;20050;-55
2021/11/28 01:08:24;;;;;;;23.58;14.18;;;2.30;99.90;;;;;;4990833;28;20022;-56
2021/11/28 01:10:50;;;;;;;23.80;14.27;;;2.30;99.90;;;;;;4993183;28;20392;-56
2021/11/28 01:13:17;;;;;;;19.77;11.95;;;2.30;99.90;;;;;;4991051;28;20034;-52
2021/11/28 01:15:43;;;;;;;19.15;12.13;;;2.30;99.90;;;;;;4971828;28;20064;-53
2021/11/28 01:18:08;;;;;;;20.75;13.02;;;2.40;99.90;;;;;;4980618;28;20052;-53
2021/11/28 01:20:34;;;;;;;23.02;14.07;;;2.40;99.90;;;;;;4984202;28;20040;-52
2021/11/28 01:23:00;;;;;;;23.90;14.10;;;2.40;99.90;;;;;;4971601;28;20072;-54
2021/11/28 01:25:26;;;;;;;24.83;14.98;;;2.40;99.90;;;;;;4974297;28;20042;-54
2021/11/28 01:27:52;;;;;;;25.92;14.82;;;2.50;99.90;;;;;;4972086;28;20030;-52
2021/11/28 01:30:18;;;;;;;25.38;14.65;;;2.40;99.90;;;;;;4977175;28;20027;-52
2021/11/28 01:32:45;;;;;;;29.13;16.20;;;2.30;99.90;;;;;;4975329;28;20042;-52
2021/11/28 01:35:13;;;;;;;25.52;14.98;;;2.40;99.90;;;;;;4974069;28;20530;-51
2021/11/28 01:37:40;;;;;;;26.75;15.30;;;2.40;99.90;;;;;;4969100;28;20121;-51
2021/11/28 01:40:09;;;;;;;25.85;15.30;;;2.40;99.90;;;;;;4967869;28;20042;-52
2021/11/28 01:42:36;;;;;;;25.00;14.57;;;2.40;99.90;;;;;;4968541;28;20045;-53
2021/11/28 01:45:02;;;;;;;24.35;14.27;;;2.40;99.90;;;;;;4971525;28;20075;-51
2021/11/28 01:47:28;;;;;;;27.55;15.07;;;2.40;99.90;;;;;;4974417;28;20034;-50
2021/11/28 01:49:54;;;;;;;27.85;14.27;;;2.30;99.90;;;;;;4981786;28;20027;-53
2021/11/28 01:52:20;;;;;;;27.23;14.73;;;2.30;99.90;;;;;;4971342;28;20042;-51
2021/11/28 01:54:46;;;;;;;26.80;15.05;;;2.20;99.90;;;;;;4971546;28;20097;-53
2021/11/28 01:57:11;;;;;;;23.33;12.85;;;2.20;99.90;;;;;;4969021;28;20448;-51
2021/11/28 01:59:37;;;;;;;23.70;13.95;;;2.20;99.90;;;;;;4967725;28;20035;-54
2021/11/28 02:02:03;;;;;;;25.60;14.82;;;2.20;99.90;;;;;;4969109;28;20118;-50
2021/11/28 02:04:29;;;;;;;24.40;12.50;;;2.20;99.90;;;;;;4971905;28;20420;-55
2021/11/28 02:06:55;;;;;;;25.80;13.68;;;2.20;99.90;;;;;;4974988;28;20054;-54
2021/11/28 02:09:20;;;;;;;24.92;13.98;;;2.20;99.90;;;;;;4969435;28;20035;-52
2021/11/28 02:11:46;;;;;;;25.17;14.00;;;2.20;99.90;;;;;;4973892;28;20031;-56
2021/11/28 02:14:12;;;;;;;25.13;14.57;;;2.20;99.90;;;;;;4988960;28;20077;-55
2021/11/28 02:16:38;;;;;;;25.92;14.32;;;2.20;99.90;;;;;;4973603;28;20515;-54
2021/11/28 02:19:04;;;;;;;26.23;13.98;;;2.20;99.90;;;;;;4982175;28;20169;-53
2021/11/28 02:21:31;;;;;;;24.83;13.57;;;2.20;99.90;;;;;;4989183;28;20105;-55
2021/11/28 02:23:56;;;;;;;25.95;14.02;;;2.10;99.90;;;;;;4969336;28;20128;-56
2021/11/28 02:26:24;;;;;;;23.85;13.25;;;2.20;99.90;;;;;;4971969;28;20038;-53
2021/11/28 02:28:51;;;;;;;25.23;13.73;;;2.10;99.90;;;;;;4968498;28;20125;-50
2021/11/28 02:31:17;;;;;;;25.30;14.02;;;2.10;99.90;;;;;;4969104;28;20034;-53
2021/11/28 02:33:43;;;;;;;26.48;14.02;;;2.10;99.90;;;;;;4969583;28;20042;-53
2021/11/28 02:36:09;;;;;;;24.73;14.02;;;2.20;99.90;;;;;;4971195;28;20105;-56
2021/11/28 02:38:34;;;;;;;28.52;15.55;;;2.20;99.90;;;;;;4979742;28;20037;-54
2021/11/28 02:41:00;;;;;;;28.95;15.05;;;2.20;99.90;;;;;;4991463;28;20022;-53
2021/11/28 02:43:29;;;;;;;33.63;15.38;;;2.20;99.90;;;;;;5005714;28;20038;-52
2021/11/28 02:45:54;;;;;;;31.63;14.73;;;2.20;99.90;;;;;;4973347;28;20034;-53
2021/11/28 02:48:20;;;;;;;29.27;15.13;;;2.10;99.90;;;;;;4983043;28;20396;-51
2021/11/28 02:50:47;;;;;;;34.17;16.00;;;2.10;99.90;;;;;;4969077;28;20029;-53
2021/11/28 02:53:14;;;;;;;35.25;15.93;;;2.10;99.90;;;;;;4969317;28;20044;-52
2021/11/28 02:55:44;;;;;;;33.92;16.73;;;2.10;99.90;;;;;;4979383;28;20058;-53
2021/11/28 02:58:12;;;;;;;35.25;16.27;;;2.20;99.90;;;;;;4982023;28;20038;-52
2021/11/28 03:00:42;;;;;;;29.67;15.18;;;2.20;99.90;;;;;;4993154;28;20430;-54
2021/11/28 03:03:08;;;;;;;30.55;16.25;;;2.20;99.90;;;;;;4979580;28;20038;-52
2021/11/28 03:05:34;;;;;;;29.80;14.98;;;2.20;99.90;;;;;;4970652;28;20544;-53
2021/11/28 03:08:00;;;;;;;27.83;15.00;;;2.10;99.90;;;;;;4968866;28;20389;-51
2021/11/28 03:10:34;;;;;;;30.10;14.95;;;2.20;99.90;;;;;;4967995;28;20046;-52
2021/11/28 03:13:03;;;;;;;28.92;14.40;;;2.20;99.90;;;;;;4985187;28;20379;-52
2021/11/28 03:15:29;;;;;;;31.52;15.68;;;2.20;99.90;;;;;;4993922;28;20038;-51
2021/11/28 03:17:55;;;;;;;27.52;14.35;;;2.20;99.90;;;;;;5000743;28;20545;-52
2021/11/28 03:20:21;;;;;;;25.90;14.15;;;2.20;99.90;;;;;;4999584;28;20033;-51
2021/11/28 03:22:51;;;;;;;25.13;13.15;;;2.30;99.90;;;;;;4996225;28;20506;-52
2021/11/28 03:25:19;;;;;;;29.77;13.85;;;2.30;99.90;;;;;;4996407;28;20072;-51
2021/11/28 03:27:45;;;;;;;24.58;13.27;;;2.20;99.90;;;;;;4997391;28;20030;-53
2021/11/28 03:30:13;;;;;;;25.95;13.95;;;2.30;99.90;;;;;;5003261;28;20491;-51
2021/11/28 03:32:39;;;;;;;24.58;14.18;;;2.30;99.90;;;;;;5004888;28;20049;-52
2021/11/28 03:35:06;;;;;;;23.02;12.55;;;2.30;99.90;;;;;;4997089;28;20029;-51
2021/11/28 03:37:32;;;;;;;24.95;13.32;;;2.30;99.90;;;;;;4997520;28;20114;-53
2021/11/28 03:39:59;;;;;;;26.20;13.48;;;2.30;99.90;;;;;;4995046;28;20041;-52
2021/11/28 03:42:25;;;;;;;27.77;14.25;;;2.20;99.90;;;;;;4999998;28;20030;-52
2021/11/28 03:44:51;;;;;;;25.15;14.15;;;2.20;99.90;;;;;;4994800;28;20476;-50
2021/11/28 03:47:17;;;;;;;25.80;14.10;;;2.20;99.90;;;;;;4996828;28;20041;-48
2021/11/28 03:49:43;;;;;;;26.42;14.18;;;2.20;99.90;;;;;;4999273;28;20484;-48
2021/11/28 03:52:09;;;;;;;27.02;14.25;;;2.20;99.90;;;;;;5000123;28;20411;-51
2021/11/28 03:54:35;;;;;;;25.85;13.82;;;2.20;99.90;;;;;;4998889;28;20026;-48
2021/11/28 03:57:01;;;;;;;24.95;14.20;;;2.20;99.90;;;;;;4999763;28;20034;-52
2021/11/28 03:59:28;;;;;;;30.23;15.63;;;2.20;99.90;;;;;;5001291;28;20037;-52
2021/11/28 04:01:54;;;;;;;27.67;15.07;;;2.20;99.90;;;;;;5004154;28;20030;-50
2021/11/28 04:04:20;;;;;;;27.98;15.13;;;2.20;99.90;;;;;;5004262;28;20037;-48
2021/11/28 04:06:46;;;;;;;27.70;14.65;;;2.20;99.90;;;;;;4999498;28;20022;-51
2021/11/28 04:09:12;;;;;;;27.25;15.13;;;2.20;99.90;;;;;;4998678;28;20026;-50
2021/11/28 04:11:38;;;;;;;31.45;14.75;;;2.20;99.90;;;;;;5001422;28;20097;-52
2021/11/28 04:14:04;;;;;;;27.63;14.38;;;2.20;99.90;;;;;;5000857;28;20022;-49
2021/11/28 04:16:30;;;;;;;28.23;14.32;;;2.20;99.90;;;;;;5001824;28;20034;-47
2021/11/28 04:18:55;;;;;;;29.50;15.52;;;2.20;99.90;;;;;;5000251;28;20027;-50
2021/11/28 04:21:21;;;;;;;28.85;14.88;;;2.20;99.90;;;;;;4994967;28;20117;-48
2021/11/28 04:23:49;;;;;;;25.80;13.02;;;2.20;99.90;;;;;;5001962;28;20038;-48
2021/11/28 04:26:15;;;;;;;28.02;14.80;;;2.20;99.90;;;;;;4992221;28;20033;-48
2021/11/28 04:28:41;;;;;;;27.63;14.20;;;2.20;99.90;;;;;;5002935;28;20129;-48
2021/11/28 04:31:06;;;;;;;25.90;14.02;;;2.20;99.90;;;;;;5002878;28;20022;-50
2021/11/28 04:33:33;;;;;;;26.83;14.63;;;2.20;99.90;;;;;;5002173;28;20033;-50
2021/11/28 04:35:58;;;;;;;28.05;14.68;;;2.20;99.90;;;;;;4999582;28;20041;-53
2021/11/28 04:38:24;;;;;;;28.48;14.90;;;2.20;99.90;;;;;;4999064;28;20035;-48
2021/11/28 04:40:50;;;;;;;30.10;15.85;;;2.20;99.90;;;;;;5002042;28;20075;-49
2021/11/28 04:43:16;;;;;;;28.75;14.65;;;2.10;99.90;;;;;;5000892;28;20388;-48
2021/11/28 04:45:42;;;;;;;25.40;13.38;;;2.20;99.90;;;;;;5003171;28;20045;-48
2021/11/28 04:48:08;;;;;;;28.48;13.63;;;2.20;99.90;;;;;;4996588;28;20495;-48
2021/11/28 04:50:34;;;;;;;26.95;13.85;;;2.20;99.90;;;;;;5000620;28;20441;-48
2021/11/28 04:52:59;;;;;;;28.25;14.68;;;2.20;99.90;;;;;;5002325;28;20033;-48
2021/11/28 04:55:25;;;;;;;28.70;14.77;;;2.20;99.90;;;;;;4990632;28;20036;-48
2021/11/28 04:57:51;;;;;;;29.23;14.63;;;2.20;99.90;;;;;;4999308;28;20046;-53
2021/11/28 05:00:20;;;;;;;27.67;14.95;;;2.20;99.90;;;;;;5001368;28;20035;-48
2021/11/28 05:02:47;;;;;;;28.85;15.50;;;2.20;99.90;;;;;;5008031;28;20112;-47
2021/11/28 05:05:13;;;;;;;28.65;15.02;;;2.20;99.90;;;;;;4998464;28;20495;-47
2021/11/28 05:07:39;;;;;;;31.45;16.00;;;2.30;99.90;;;;;;4999331;28;20109;-51
2021/11/28 05:10:06;;;;;;;32.65;16.73;;;2.30;99.90;;;;;;4999302;28;20101;-49
2021/11/28 05:12:32;;;;;;;33.00;16.45;;;2.30;99.90;;;;;;5000787;28;20030;-48
2021/11/28 05:14:58;;;;;;;33.25;16.67;;;2.30;99.90;;;;;;5004942;28;20022;-49
2021/11/28 05:17:24;;;;;;;34.47;15.75;;;2.30;99.90;;;;;;4995695;28;20040;-48
2021/11/28 05:19:49;;;;;;;35.05;17.17;;;2.30;99.90;;;;;;4997886;28;20070;-49
2021/11/28 05:22:15;;;;;;;30.70;16.27;;;2.30;99.90;;;;;;4997729;28;20031;-52
2021/11/28 05:24:41;;;;;;;34.60;17.52;;;2.40;99.90;;;;;;5001442;28;20034;-47
2021/11/28 05:27:07;;;;;;;35.15;16.85;;;2.40;99.90;;;;;;4999511;28;20022;-49
2021/11/28 05:29:32;;;;;;;35.58;18.15;;;2.40;99.90;;;;;;4997716;28;20046;-48
2021/11/28 05:31:58;;;;;;;32.33;15.90;;;2.40;99.90;;;;;;5001124;28;20068;-50
2021/11/28 05:34:24;;;;;;;34.42;17.13;;;2.30;99.90;;;;;;5002071;28;20026;-49
2021/11/28 05:36:50;;;;;;;34.58;17.55;;;2.30;99.90;;;;;;4999330;28;20027;-48
2021/11/28 05:39:15;;;;;;;32.08;16.17;;;2.30;99.90;;;;;;4997433;28;20049;-47
2021/11/28 05:41:41;;;;;;;34.15;16.90;;;2.30;99.90;;;;;;5001538;28;20384;-48
2021/11/28 05:44:09;;;;;;;31.23;16.40;;;2.30;99.90;;;;;;5001962;28;20491;-47
2021/11/28 05:46:34;;;;;;;34.80;18.00;;;2.30;99.90;;;;;;4996937;28;20023;-50
2021/11/28 05:49:00;;;;;;;34.03;17.08;;;2.40;99.90;;;;;;4998456;28;20372;-56
2021/11/28 05:51:26;;;;;;;36.92;18.08;;;2.40;99.90;;;;;;4999459;28;20570;-51
2021/11/28 05:53:52;;;;;;;36.42;17.95;;;2.40;99.90;;;;;;5002836;28;20542;-51
2021/11/28 05:56:17;;;;;;;33.38;17.35;;;2.40;99.90;;;;;;4994847;28;20058;-48
2021/11/28 05:58:44;;;;;;;33.40;17.83;;;2.40;99.90;;;;;;5000125;28;20030;-49
2021/11/28 06:01:10;;;;;;;34.50;16.98;;;2.40;99.90;;;;;;5002318;28;20104;-50
2021/11/28 06:03:35;;;;;;;36.08;17.98;;;2.40;99.90;;;;;;4996530;28;20034;-48
2021/11/28 06:06:01;;;;;;;34.47;18.17;;;2.40;99.90;;;;;;5002191;28;20049;-49
2021/11/28 06:08:27;;;;;;;32.58;17.17;;;2.50;99.90;;;;;;4996048;28;20089;-54
2021/11/28 06:10:53;;;;;;;38.97;18.92;;;2.50;99.90;;;;;;4997400;28;20446;-51
2021/11/28 06:13:19;;;;;;;34.72;18.10;;;2.50;99.90;;;;;;5001132;28;20523;-53
2021/11/28 06:15:44;;;;;;;32.50;17.92;;;2.50;99.90;;;;;;4992895;28;20025;-53
2021/11/28 06:18:10;;;;;;;33.67;17.60;;;2.50;99.90;;;;;;4996704;28;20030;-48
2021/11/28 06:20:37;;;;;;;36.00;19.60;;;2.50;99.90;;;;;;5004371;28;20155;-48
2021/11/28 06:23:03;;;;;;;34.38;17.55;;;2.50;99.90;;;;;;4999069;28;20030;-48
2021/11/28 06:25:29;;;;;;;32.20;16.80;;;2.50;99.90;;;;;;4999253;28;20046;-48
2021/11/28 06:27:55;;;;;;;29.90;17.23;;;2.50;99.90;;;;;;5001202;28;20022;-55
2021/11/28 06:30:21;;;;;;;31.30;16.35;;;2.50;99.90;;;;;;5001649;28;20045;-51
2021/11/28 06:32:47;;;;;;;30.48;16.90;;;2.60;99.90;;;;;;4992168;28;20042;-51
2021/11/28 06:35:13;;;;;;;31.52;16.80;;;2.50;99.90;;;;;;4997371;28;20400;-52
2021/11/28 06:37:39;;;;;;;29.10;15.85;;;2.50;99.90;;;;;;4993082;28;20121;-53
2021/11/28 06:40:06;;;;;;;32.60;17.83;;;2.60;99.90;;;;;;4994446;28;20113;-52
2021/11/28 06:42:31;;;;;;;31.80;17.27;;;2.50;99.90;;;;;;4989134;28;20030;-52
2021/11/28 06:44:57;;;;;;;34.40;17.98;;;2.60;99.90;;;;;;4985970;28;20034;-52
2021/11/28 06:47:23;;;;;;;35.38;17.65;;;2.60;99.90;;;;;;4993292;28;20030;-51
2021/11/28 06:49:49;;;;;;;33.22;18.35;;;2.60;99.90;;;;;;5000127;28;20493;-52
2021/11/28 06:52:14;;;;;;;33.33;18.08;;;2.60;99.90;;;;;;5000947;28;20475;-52
2021/11/28 06:54:40;;;;;;;30.13;16.85;;;2.60;99.90;;;;;;4993709;28;20035;-53
2021/11/28 06:57:06;;;;;;;32.97;18.17;;;2.70;99.90;;;;;;5000765;28;20026;-52
2021/11/28 06:59:32;;;;;;;33.22;17.83;;;2.70;99.90;;;;;;4998658;28;20114;-53
2021/11/28 07:01:58;;;;;;;33.63;17.85;;;2.70;99.90;;;;;;5000784;28;20030;-52
2021/11/28 07:04:24;;;;;;;38.80;19.17;;;2.70;99.90;;;;;;4993245;28;20097;-52
2021/11/28 07:06:50;;;;;;;33.72;18.15;;;2.80;99.90;;;;;;4999844;28;20412;-52
2021/11/28 07:09:15;;;;;;;34.53;18.02;;;2.70;99.90;;;;;;4999777;28;20042;-55
2021/11/28 07:11:41;;;;;;;32.92;17.75;;;2.80;99.90;;;;;;4996622;28;20030;-52
2021/11/28 07:14:07;;;;;;;34.92;17.92;;;2.80;99.90;;;;;;4996529;28;20038;-52
2021/11/28 07:16:33;;;;;;;35.28;18.60;;;2.80;99.90;;;;;;4997431;28;20164;-53
2021/11/28 07:18:59;;;;;;;37.95;19.48;;;2.80;99.90;;;;;;4996783;28;20034;-52
2021/11/28 07:21:24;;;;;;;37.63;18.88;;;2.80;99.90;;;;;;4997540;28;20045;-52
2021/11/28 07:23:50;;;;;;;34.30;19.10;;;2.90;99.90;;;;;;4998466;28;20392;-52
2021/11/28 07:26:17;;;;;;;36.22;18.42;;;2.90;99.90;;;;;;4996757;28;20106;-53
2021/11/28 07:28:45;;;;;;;39.10;20.38;;;2.90;99.90;;;;;;4994758;28;20109;-52
2021/11/28 07:31:11;;;;;;;38.92;19.58;;;3.00;99.90;;;;;;4999959;28;20061;-51
2021/11/28 07:33:37;;;;;;;39.85;19.85;;;3.00;99.90;;;;;;4998992;28;20065;-53
2021/11/28 07:36:05;;;;;;;34.83;18.50;;;2.90;99.90;;;;;;4995836;28;20031;-52
2021/11/28 07:38:31;;;;;;;37.88;19.42;;;3.00;99.90;;;;;;4993737;28;20030;-52
2021/11/28 07:40:57;;;;;;;36.97;18.45;;;3.00;99.90;;;;;;4999678;28;20041;-52
2021/11/28 07:43:23;;;;;;;39.67;19.63;;;3.00;99.90;;;;;;5000228;28;20052;-52
2021/11/28 07:45:49;;;;;;;39.63;19.33;;;3.00;99.90;;;;;;4995642;28;20109;-52
2021/11/28 07:48:15;;;;;;;36.75;18.77;;;3.00;99.90;;;;;;4994924;28;20568;-53
2021/11/28 07:50:41;;;;;;;36.80;19.13;;;3.00;99.90;;;;;;4999933;28;20057;-55
2021/11/28 07:53:07;;;;;;;40.22;19.38;;;3.00;99.90;;;;;;5000266;28;20025;-55
2021/11/28 07:55:32;;;;;;;36.85;18.27;;;3.00;99.90;;;;;;4997328;28;20038;-52
2021/11/28 07:57:59;;;;;;;40.75;18.67;;;3.00;99.90;;;;;;4996636;28;20030;-53
2021/11/28 08:00:25;;;;;;;41.42;19.85;;;3.10;99.90;;;;;;4997720;28;20077;-55
2021/11/28 08:02:51;;;;;;;34.08;18.30;;;3.10;99.90;;;;;;5000300;28;20380;-50
2021/11/28 08:05:16;;;;;;;36.47;18.83;;;3.20;99.90;;;;;;4999642;28;20057;-52
2021/11/28 08:07:42;;;;;;;35.75;18.38;;;3.20;99.90;;;;;;4996622;28;20551;-51
2021/11/28 08:10:08;;;;;;;36.38;18.55;;;3.20;99.90;;;;;;4995494;28;20084;-53
2021/11/28 08:12:34;;;;;;;34.90;18.17;;;3.20;99.90;;;;;;4998743;28;20041;-52
2021/11/28 08:15:01;;;;;;;37.78;18.52;;;3.20;99.90;;;;;;4995155;28;20197;-52
2021/11/28 08:17:27;;;;;;;34.42;18.30;;;3.20;99.90;;;;;;4998160;28;20092;-53
2021/11/28 08:19:53;;;;;;;34.13;18.00;;;3.30;99.90;;;;;;4992521;28;20026;-52
2021/11/28 08:22:19;;;;;;;34.40;18.00;;;3.30;99.90;;;;;;4999676;28;20100;-53
2021/11/28 08:24:44;;;;;;;31.20;18.25;;;3.30;99.90;;;;;;4991590;28;20057;-51
2021/11/28 08:27:11;;;;;;;31.70;18.40;;;3.30;99.90;;;;;;4998728;28;20095;-51
2021/11/28 08:29:37;;;;;;;34.67;17.45;;;3.30;99.90;;;;;;4996626;28;20077;-51
2021/11/28 08:32:03;;;;;;;34.33;17.70;;;3.40;99.90;;;;;;4991990;28;20035;-51
2021/11/28 08:34:29;;;;;;;34.47;18.45;;;3.40;99.90;;;;;;5001360;28;20030;-50
2021/11/28 08:36:55;;;;;;;36.08;18.50;;;3.40;99.90;;;;;;4996930;28;20114;-53
2021/11/28 08:39:21;;;;;;;34.55;18.42;;;3.40;99.90;;;;;;4995368;28;20030;-52
2021/11/28 08:41:47;;;;;;;34.88;18.00;;;3.40;99.90;;;;;;4979504;28;20057;-51
2021/11/28 08:44:13;;;;;;;37.05;19.23;;;3.40;99.90;;;;;;4989345;28;20475;-51
2021/11/28 08:46:39;;;;;;;35.78;18.75;;;3.40;99.90;;;;;;5000953;28;20040;-51
2021/11/28 08:49:05;;;;;;;35.63;18.60;;;3.40;99.90;;;;;;4997550;28;20026;-52
2021/11/28 08:51:30;;;;;;;36.38;18.25;;;3.40;99.90;;;;;;5001187;28;20117;-52
2021/11/28 08:53:58;;;;;;;33.33;17.73;;;3.40;99.90;;;;;;5003275;28;20112;-52
2021/11/28 08:56:24;;;;;;;33.72;17.42;;;3.40;99.90;;;;;;5003003;28;20121;-51
2021/11/28 08:58:51;;;;;;;32.08;17.15;;;3.40;99.90;;;;;;4998872;28;20058;-51
2021/11/28 09:01:17;;;;;;;31.67;17.95;;;3.40;99.90;;;;;;4998719;28;20458;-51
2021/11/28 09:03:43;;;;;;;33.97;18.13;;;3.40;99.90;;;;;;5001446;28;20148;-51
2021/11/28 09:06:09;;;;;;;30.17;17.55;;;3.40;99.90;;;;;;5002510;28;20026;-52
2021/11/28 09:08:38;;;;;;;33.88;17.73;;;3.50;99.90;;;;;;4998514;28;20108;-51
2021/11/28 09:11:05;;;;;;;32.00;17.45;;;3.50;99.90;;;;;;5002571;28;20391;-53
2021/11/28 09:13:36;;;;;;;30.73;17.33;;;3.60;99.90;;;;;;4993817;28;20400;-50
2021/11/28 09:16:03;;;;;;;33.67;17.90;;;3.60;99.90;;;;;;5002421;28;20488;-51
2021/11/28 09:18:39;;;;;;;27.42;16.13;;;3.60;99.90;;;;;;5002025;28;20026;-52
2021/11/28 09:21:05;;;;;;;27.98;16.95;;;3.60;99.90;;;;;;4993711;28;20048;-51
2021/11/28 09:26:15;;;;;;;29.98;16.75;;;3.60;99.90;;;;;;4999540;28;20036;-51
2021/11/28 09:28:41;;;;;;;29.63;17.35;;;3.60;99.90;;;;;;5000079;28;20027;-55
2021/11/28 09:31:10;;;;;;;29.92;17.85;;;3.50;99.90;;;;;;5002340;28;20112;-49
2021/11/28 09:33:38;;;;;;;33.78;17.83;;;3.60;99.90;;;;;;5000570;28;20459;-50
2021/11/28 09:36:04;;;;;;;30.02;17.35;;;3.70;99.90;;;;;;4998504;28;20104;-52
2021/11/28 09:38:31;;;;;;;29.80;17.17;;;3.70;99.90;;;;;;4999063;28;20068;-51
2021/11/28 09:41:00;;;;;;;32.47;17.63;;;3.70;99.90;;;;;;5002161;28;20030;-51
2021/11/28 09:43:27;;;;;;;34.05;18.67;;;3.70;99.90;;;;;;5001477;28;20021;-51
2021/11/28 09:45:55;;;;;;;30.27;17.15;;;3.80;99.90;;;;;;4998392;28;20030;-51
2021/11/28 09:48:23;;;;;;;31.83;17.45;;;3.70;99.90;;;;;;4996871;28;20126;-53
2021/11/28 09:50:50;;;;;;;32.95;17.85;;;3.70;99.90;;;;;;4992146;28;20018;-52
2021/11/28 09:53:17;;;;;;;35.22;18.52;;;3.70;99.90;;;;;;5002360;28;20345;-52
2021/11/28 09:55:44;;;;;;;36.40;19.48;;;3.80;99.90;;;;;;4997555;28;20035;-49
2021/11/28 09:58:09;;;;;;;31.85;18.50;;;3.80;99.90;;;;;;4996736;28;20076;-49
2021/11/28 10:00:36;;;;;;;32.28;17.30;;;3.80;99.90;;;;;;5000513;28;20137;-51
2021/11/28 10:03:03;;;;;;;33.75;18.55;;;3.80;99.90;;;;;;5001422;28;20026;-52
2021/11/28 10:05:28;;;;;;;31.38;17.92;;;3.90;99.90;;;;;;4998109;28;20026;-54
2021/11/28 10:07:55;;;;;;;37.47;17.85;;;3.80;99.90;;;;;;4997246;28;20488;-51
2021/11/28 10:10:21;;;;;;;34.58;19.17;;;3.80;99.90;;;;;;5005851;28;20053;-54
2021/11/28 10:12:50;;;;;;;31.08;17.55;;;3.80;99.90;;;;;;4982376;28;20041;-51
2021/11/28 10:15:26;;;;;;;36.53;18.25;;;3.90;99.90;;;;;;5000128;28;20149;-54
2021/11/28 10:17:52;;;;;;;32.00;18.38;;;3.90;99.90;;;;;;4998136;28;20065;-53
2021/11/28 10:20:20;;;;;;;34.83;19.23;;;4.00;99.90;;;;;;4997560;28;20363;-51
2021/11/28 10:22:46;;;;;;;35.88;19.15;;;4.00;99.90;;;;;;5010997;28;20112;-51
2021/11/28 10:25:30;;;;;;;34.13;18.92;;;4.00;99.90;;;;;;5000049;28;20041;-50
2021/11/28 10:28:05;;;;;;;34.15;19.48;;;4.10;99.90;;;;;;4991452;28;20428;-52
2021/11/28 10:30:41;;;;;;;30.83;16.95;;;4.10;99.90;;;;;;4999416;28;20019;-52
2021/11/28 10:33:16;;;;;;;32.33;18.30;;;4.10;99.90;;;;;;5001511;28;20192;-51
2021/11/28 10:36:08;;;;;;;34.05;18.27;;;4.10;99.90;;;;;;4991754;28;20042;-52
2021/11/28 10:38:40;;;;;;;35.03;18.95;;;4.10;99.90;;;;;;5006513;28;20026;-51
2021/11/28 10:41:27;;;;;;;31.73;16.58;;;4.10;99.90;;;;;;5003003;28;20113;-51
2021/11/28 10:43:53;;;;;;;28.33;16.13;;;4.10;99.90;;;;;;4984963;28;20034;-51
2021/11/28 10:46:30;;;;;;;22.75;13.15;;;3.90;99.90;;;;;;5002079;28;20120;-52
2021/11/28 10:49:10;;;;;;;29.08;16.70;;;3.90;99.90;;;;;;5003125;28;20044;-54
2021/11/28 10:51:39;;;;;;;28.80;15.73;;;3.90;99.90;;;;;;4994093;28;20065;-51
2021/11/28 10:54:30;;;;;;;29.45;17.33;;;3.90;99.90;;;;;;4996098;28;20029;-52
2021/11/28 10:57:08;;;;;;;28.52;15.55;;;3.90;99.90;;;;;;4999309;28;20037;-51
2021/11/28 10:59:35;;;;;;;29.42;16.80;;;4.10;99.90;;;;;;4997854;28;20029;-51
2021/11/28 11:02:17;;;;;;;33.20;17.10;;;4.10;99.90;;;;;;5001519;28;20049;-51
2021/11/28 11:04:43;;;;;;;27.30;16.27;;;4.30;99.90;;;;;;5001234;28;20030;-52
2021/11/28 11:07:11;;;;;;;25.73;15.55;;;4.40;99.90;;;;;;4993701;28;20396;-52
2021/11/28 11:09:45;;;;;;;31.63;17.45;;;4.40;99.90;;;;;;4993774;28;20026;-52
2021/11/28 11:12:28;;;;;;;29.75;17.23;;;4.40;99.90;;;;;;5000385;28;20029;-51
2021/11/28 11:14:56;;;;;;;30.00;18.35;;;4.30;99.90;;;;;;4990013;28;20442;-52
2021/11/28 11:17:26;;;;;;;33.75;18.77;;;4.30;99.90;;;;;;4986424;28;20046;-56
2021/11/28 11:19:52;;;;;;;31.70;18.67;;;4.40;99.90;;;;;;4997183;28;20033;-56
2021/11/28 11:22:25;;;;;;;30.45;17.25;;;4.40;99.90;;;;;;5000539;28;20100;-54
2021/11/28 11:25:01;;;;;;;29.58;17.55;;;4.50;99.90;;;;;;4994394;28;20558;-56
2021/11/28 11:27:33;;;;;;;27.73;16.75;;;4.70;99.90;;;;;;4988989;28;20113;-55
2021/11/28 11:30:01;;;;;;;30.38;16.08;;;4.90;99.90;;;;;;4999858;28;20022;-55
2021/11/28 11:32:51;;;;;;;27.15;15.32;;;5.10;99.90;;;;;;5001458;28;20026;-55
2021/11/28 11:35:20;;;;;;;25.80;15.15;;;5.20;99.90;;;;;;4992819;28;20246;-55
2021/11/28 11:37:47;;;;;;;25.15;15.25;;;5.20;99.90;;;;;;4993720;28;20189;-55
2021/11/28 11:40:15;;;;;;;26.00;15.45;;;5.20;99.90;;;;;;4990275;28;20416;-54
2021/11/28 11:42:43;;;;;;;23.73;14.45;;;5.10;99.90;;;;;;5004119;28;20030;-56
2021/11/28 11:45:11;;;;;;;31.02;15.70;;;5.20;99.90;;;;;;5000986;28;20030;-55
2021/11/28 11:47:40;;;;;;;22.85;13.13;;;5.40;99.90;;;;;;5006070;28;20026;-53
2021/11/28 11:50:12;;;;;;;19.92;11.77;;;5.50;99.90;;;;;;5000822;28;20026;-50
2021/11/28 11:52:38;;;;;;;17.45;10.48;;;5.40;99.90;;;;;;5005035;28;20034;-55
2021/11/28 11:55:14;;;;;;;22.70;12.75;;;5.30;99.90;;;;;;4985258;28;20104;-52
2021/11/28 11:58:07;;;;;;;22.55;12.82;;;5.30;99.90;;;;;;4993824;28;20022;-56
2021/11/28 12:00:41;;;;;;;20.50;11.68;;;5.20;99.90;;;;;;4988945;28;20088;-56
2021/11/28 12:03:21;;;;;;;22.35;12.43;;;5.10;99.90;;;;;;4988972;28;20085;-57
2021/11/28 12:05:49;;;;;;;19.85;10.75;;;5.10;99.90;;;;;;4989702;28;20026;-55
2021/11/28 12:08:14;;;;;;;18.20;10.77;;;5.00;99.90;;;;;;4996303;28;20027;-54
2021/11/28 12:10:41;;;;;;;19.98;11.65;;;4.90;99.90;;;;;;4999334;28;20150;-56
2021/11/28 12:13:25;;;;;;;15.93;9.52;;;4.80;99.90;;;;;;4992682;28;20034;-57
2021/11/28 12:15:53;;;;;;;18.23;10.70;;;4.70;99.90;;;;;;4989985;28;20072;-54
2021/11/28 12:18:39;;;;;;;19.10;11.18;;;4.70;99.90;;;;;;4992234;28;20026;-54
2021/11/28 12:21:09;;;;;;;22.67;12.88;;;4.60;99.90;;;;;;4992906;28;20057;-56
2021/11/28 12:23:53;;;;;;;21.50;12.73;;;4.60;99.90;;;;;;4993367;28;20062;-57
2021/11/28 12:26:27;;;;;;;29.02;15.05;;;4.60;99.90;;;;;;4993145;28;20022;-54
2021/11/28 12:28:55;;;;;;;23.30;13.43;;;4.60;99.90;;;;;;4993054;28;20081;-56
2021/11/28 12:31:32;;;;;;;28.65;15.40;;;4.70;99.90;;;;;;4993077;28;20058;-56
2021/11/28 12:33:57;;;;;;;27.58;14.95;;;4.70;99.90;;;;;;4992144;28;20400;-57
2021/11/28 12:36:39;;;;;;;31.42;17.15;;;4.70;99.90;;;;;;4981146;28;20027;-56
2021/11/28 12:39:11;;;;;;;27.88;14.93;;;4.70;99.90;;;;;;4992392;28;20444;-57
2021/11/28 12:41:58;;;;;;;26.73;15.93;;;4.70;99.90;;;;;;4990192;28;20038;-55
2021/11/28 12:44:26;;;;;;;27.30;16.58;;;4.70;99.90;;;;;;5000650;28;20034;-56
2021/11/28 12:47:01;;;;;;;24.65;15.32;;;4.70;99.90;;;;;;5009692;28;20022;-55
2021/11/28 12:49:45;;;;;;;22.52;14.07;;;4.70;99.90;;;;;;4998091;28;20026;-53